sensor_id;sensor_type;location;lat;lon;timestamp;pressure;altitude;pressure_sealevel;temperature;humidity
63321;BME280;49449;48.800;9.534;2023-09-19T00:00:27;98170.63;;;18.06;43.95
63321;BME280;49449;48.800;9.534;2023-09-19T00:02:56;98169.03;;;18.05;43.96
63321;BME280;49449;48.800;9.534;2023-09-19T00:05:26;98180.78;;;18.04;44.00
63321;BME280;49449;48.800;9.534;2023-09-19T00:07:55;98170.63;;;18.06;43.76
63321;BME280;49449;48.800;9.534;2023-09-19T00:10:25;98170.56;;;18.11;43.67
63321;BME280;49449;48.800;9.534;2023-09-19T00:12:54;98174.31;;;18.10;43.88
63321;BME280;49449;48.800;9.534;2023-09-19T00:15:24;98187.38;;;18.12;43.66
63321;BME280;49449;48.800;9.534;2023-09-19T00:17:52;98188.69;;;18.14;44.08
63321;BME280;49449;48.800;9.534;2023-09-19T00:20:20;98186.06;;;18.09;43.92
63321;BME280;49449;48.800;9.534;2023-09-19T00:22:50;98191.41;;;18.09;43.78
63321;BME280;49449;48.800;9.534;2023-09-19T00:25:19;98198.94;;;18.07;43.77
63321;BME280;49449;48.800;9.534;2023-09-19T00:27:47;98204.56;;;18.06;43.84
63321;BME280;49449;48.800;9.534;2023-09-19T00:30:17;98215.78;;;18.08;44.31
63321;BME280;49449;48.800;9.534;2023-09-19T00:32:50;98212.84;;;18.04;44.18
63321;BME280;49449;48.800;9.534;2023-09-19T00:35:20;98217.47;;;17.98;44.16
63321;BME280;49449;48.800;9.534;2023-09-19T00:37:50;98207.59;;;17.99;44.43
63321;BME280;49449;48.800;9.534;2023-09-19T00:40:18;98213.94;;;18.03;44.25
63321;BME280;49449;48.800;9.534;2023-09-19T00:42:48;98207.00;;;18.02;44.04
63321;BME280;49449;48.800;9.534;2023-09-19T00:45:17;98211.28;;;18.03;43.78
63321;BME280;49449;48.800;9.534;2023-09-19T00:47:49;98200.63;;;17.98;43.51
63321;BME280;49449;48.800;9.534;2023-09-19T00:50:21;98185.22;;;17.90;43.42
63321;BME280;49449;48.800;9.534;2023-09-19T00:52:53;98198.03;;;17.93;43.17
63321;BME280;49449;48.800;9.534;2023-09-19T00:55:23;98198.59;;;17.90;43.24
63321;BME280;49449;48.800;9.534;2023-09-19T00:57:52;98193.19;;;17.95;43.29
63321;BME280;49449;48.800;9.534;2023-09-19T01:00:20;98201.94;;;18.01;43.44
63321;BME280;49449;48.800;9.534;2023-09-19T01:02:51;98199.78;;;18.03;43.54
63321;BME280;49449;48.800;9.534;2023-09-19T01:05:19;98199.84;;;17.97;43.77
63321;BME280;49449;48.800;9.534;2023-09-19T01:07:47;98195.53;;;18.02;43.49
63321;BME280;49449;48.800;9.534;2023-09-19T01:10:17;98211.00;;;18.05;43.43
63321;BME280;49449;48.800;9.534;2023-09-19T01:12:54;98211.00;;;18.05;43.91
63321;BME280;49449;48.800;9.534;2023-09-19T01:15:36;98220.88;;;18.04;43.87
63321;BME280;49449;48.800;9.534;2023-09-19T01:18:16;98217.97;;;18.01;43.56
63321;BME280;49449;48.800;9.534;2023-09-19T01:20:55;98224.63;;;18.03;43.55
63321;BME280;49449;48.800;9.534;2023-09-19T01:23:32;98224.63;;;18.03;43.13
63321;BME280;49449;48.800;9.534;2023-09-19T01:26:11;98224.28;;;17.86;42.66
63321;BME280;49449;48.800;9.534;2023-09-19T01:28:52;98224.66;;;17.74;42.88
63321;BME280;49449;48.800;9.534;2023-09-19T01:31:28;98214.16;;;17.83;42.63
63321;BME280;49449;48.800;9.534;2023-09-19T01:34:01;98216.19;;;17.67;42.85
63321;BME280;49449;48.800;9.534;2023-09-19T01:36:33;98223.28;;;17.82;42.92
63321;BME280;49449;48.800;9.534;2023-09-19T01:39:04;98220.31;;;17.83;42.73
63321;BME280;49449;48.800;9.534;2023-09-19T01:41:58;98222.75;;;17.79;42.98
63321;BME280;49449;48.800;9.534;2023-09-19T01:44:36;98221.63;;;17.86;42.45
63321;BME280;49449;48.800;9.534;2023-09-19T01:47:17;98223.16;;;17.92;42.86
63321;BME280;49449;48.800;9.534;2023-09-19T01:49:55;98226.34;;;17.94;42.67
63321;BME280;49449;48.800;9.534;2023-09-19T01:52:28;98223.41;;;17.95;42.73
63321;BME280;49449;48.800;9.534;2023-09-19T01:55:02;98233.22;;;18.00;42.60
63321;BME280;49449;48.800;9.534;2023-09-19T01:57:36;98243.34;;;18.03;42.33
63321;BME280;49449;48.800;9.534;2023-09-19T02:00:10;98245.47;;;18.06;42.33
63321;BME280;49449;48.800;9.534;2023-09-19T02:02:44;98240.13;;;18.06;42.54
63321;BME280;49449;48.800;9.534;2023-09-19T02:05:12;98237.66;;;18.10;42.40
63321;BME280;49449;48.800;9.534;2023-09-19T02:07:40;98244.88;;;18.09;42.07
63321;BME280;49449;48.800;9.534;2023-09-19T02:10:08;98247.78;;;18.13;42.59
63321;BME280;49449;48.800;9.534;2023-09-19T02:12:38;98253.34;;;18.16;42.34
63321;BME280;49449;48.800;9.534;2023-09-19T02:15:08;98247.50;;;18.14;42.00
63321;BME280;49449;48.800;9.534;2023-09-19T02:17:35;98247.03;;;18.07;41.93
63321;BME280;49449;48.800;9.534;2023-09-19T02:20:06;98251.78;;;17.86;42.63
63321;BME280;49449;48.800;9.534;2023-09-19T02:22:36;98258.22;;;17.85;42.54
63321;BME280;49449;48.800;9.534;2023-09-19T02:25:06;98264.69;;;17.79;42.62
63321;BME280;49449;48.800;9.534;2023-09-19T02:27:34;98251.84;;;17.81;42.41
63321;BME280;49449;48.800;9.534;2023-09-19T02:30:03;98267.81;;;17.86;42.75
63321;BME280;49449;48.800;9.534;2023-09-19T02:32:32;98266.72;;;17.92;42.36
63321;BME280;49449;48.800;9.534;2023-09-19T02:35:04;98276.75;;;17.76;42.72
63321;BME280;49449;48.800;9.534;2023-09-19T02:37:33;98273.75;;;17.83;42.45
63321;BME280;49449;48.800;9.534;2023-09-19T02:40:01;98276.13;;;17.85;42.30
63321;BME280;49449;48.800;9.534;2023-09-19T02:42:45;98264.09;;;17.87;42.48
63321;BME280;49449;48.800;9.534;2023-09-19T02:45:16;98251.88;;;17.76;42.58
63321;BME280;49449;48.800;9.534;2023-09-19T02:47:45;98266.03;;;17.82;42.44
63321;BME280;49449;48.800;9.534;2023-09-19T02:50:14;98268.09;;;17.85;42.63
63321;BME280;49449;48.800;9.534;2023-09-19T02:52:45;98267.81;;;17.86;42.56
63321;BME280;49449;48.800;9.534;2023-09-19T02:55:16;98273.41;;;17.90;42.68
63321;BME280;49449;48.800;9.534;2023-09-19T02:57:46;98269.44;;;17.87;42.61
63321;BME280;49449;48.800;9.534;2023-09-19T03:00:15;98280.34;;;17.91;42.64
63321;BME280;49449;48.800;9.534;2023-09-19T03:02:43;98275.56;;;17.88;42.47
63321;BME280;49449;48.800;9.534;2023-09-19T03:05:12;98280.13;;;17.87;42.71
63321;BME280;49449;48.800;9.534;2023-09-19T03:07:40;98281.69;;;17.88;42.70
63321;BME280;49449;48.800;9.534;2023-09-19T03:10:11;98288.41;;;17.86;42.78
63321;BME280;49449;48.800;9.534;2023-09-19T03:12:39;98292.50;;;17.78;42.59
63321;BME280;49449;48.800;9.534;2023-09-19T03:15:07;98291.97;;;17.76;42.73
63321;BME280;49449;48.800;9.534;2023-09-19T03:17:36;98287.16;;;17.78;42.52
63321;BME280;49449;48.800;9.534;2023-09-19T03:20:04;98284.25;;;17.74;42.97
63321;BME280;49449;48.800;9.534;2023-09-19T03:22:35;98293.34;;;17.73;42.87
63321;BME280;49449;48.800;9.534;2023-09-19T03:25:03;98292.53;;;17.73;42.69
63321;BME280;49449;48.800;9.534;2023-09-19T03:27:35;98301.34;;;17.73;43.17
63321;BME280;49449;48.800;9.534;2023-09-19T03:30:04;98290.44;;;17.70;43.23
63321;BME280;49449;48.800;9.534;2023-09-19T03:32:35;98287.22;;;17.73;42.95
63321;BME280;49449;48.800;9.534;2023-09-19T03:35:03;98291.97;;;17.76;42.94
63321;BME280;49449;48.800;9.534;2023-09-19T03:37:32;98282.38;;;17.75;43.03
63321;BME280;49449;48.800;9.534;2023-09-19T03:40:00;98279.69;;;17.75;43.08
63321;BME280;49449;48.800;9.534;2023-09-19T03:42:31;98285.00;;;17.80;43.30
63321;BME280;49449;48.800;9.534;2023-09-19T03:45:00;98281.22;;;17.81;43.21
63321;BME280;49449;48.800;9.534;2023-09-19T03:47:32;98294.59;;;17.81;43.45
63321;BME280;49449;48.800;9.534;2023-09-19T03:50:00;98280.25;;;17.72;43.58
63321;BME280;49449;48.800;9.534;2023-09-19T03:52:28;98294.25;;;17.64;43.48
63321;BME280;49449;48.800;9.534;2023-09-19T03:54:56;98292.06;;;17.66;43.64
63321;BME280;49449;48.800;9.534;2023-09-19T03:57:24;98292.81;;;17.71;43.39
63321;BME280;49449;48.800;9.534;2023-09-19T03:59:51;98291.25;;;17.65;43.81
63321;BME280;49449;48.800;9.534;2023-09-19T04:02:22;98292.59;;;17.68;43.71
63321;BME280;49449;48.800;9.534;2023-09-19T04:04:50;98297.06;;;17.72;43.59
63321;BME280;49449;48.800;9.534;2023-09-19T04:07:18;98295.72;;;17.75;43.71
63321;BME280;49449;48.800;9.534;2023-09-19T04:09:48;98294.94;;;17.74;43.68
63321;BME280;49449;48.800;9.534;2023-09-19T04:12:16;98293.06;;;17.75;43.64
63321;BME280;49449;48.800;9.534;2023-09-19T04:14:44;98288.22;;;17.77;43.33
63321;BME280;49449;48.800;9.534;2023-09-19T04:17:12;98294.09;;;17.79;43.41
63321;BME280;49449;48.800;9.534;2023-09-19T04:19:41;98298.88;;;17.82;43.53
63321;BME280;49449;48.800;9.534;2023-09-19T04:22:09;98306.38;;;17.80;43.40
63321;BME280;49449;48.800;9.534;2023-09-19T04:24:37;98304.78;;;17.79;43.55
63321;BME280;49449;48.800;9.534;2023-09-19T04:27:05;98307.94;;;17.81;43.53
63321;BME280;49449;48.800;9.534;2023-09-19T04:29:33;98308.81;;;17.76;43.67
63321;BME280;49449;48.800;9.534;2023-09-19T04:32:01;98316.81;;;17.76;43.65
63321;BME280;49449;48.800;9.534;2023-09-19T04:34:32;98321.13;;;17.72;43.63
63321;BME280;49449;48.800;9.534;2023-09-19T04:37:02;98317.91;;;17.75;43.66
63321;BME280;49449;48.800;9.534;2023-09-19T04:39:30;98309.88;;;17.75;43.61
63321;BME280;49449;48.800;9.534;2023-09-19T04:41:58;98315.22;;;17.75;43.60
63321;BME280;49449;48.800;9.534;2023-09-19T04:44:26;98321.94;;;17.73;43.46
63321;BME280;49449;48.800;9.534;2023-09-19T04:46:54;98326.69;;;17.76;43.32
63321;BME280;49449;48.800;9.534;2023-09-19T04:49:22;98331.25;;;17.75;43.38
63321;BME280;49449;48.800;9.534;2023-09-19T04:51:50;98336.88;;;17.74;43.59
63321;BME280;49449;48.800;9.534;2023-09-19T04:54:19;98327.56;;;17.71;43.52
63321;BME280;49449;48.800;9.534;2023-09-19T04:56:47;98327.03;;;17.69;43.51
63321;BME280;49449;48.800;9.534;2023-09-19T04:59:14;98334.00;;;17.65;43.66
63321;BME280;49449;48.800;9.534;2023-09-19T05:01:42;98335.34;;;17.68;43.65
63321;BME280;49449;48.800;9.534;2023-09-19T05:04:11;98330.50;;;17.70;43.65
63321;BME280;49449;48.800;9.534;2023-09-19T05:06:39;98334.19;;;17.74;43.50
63321;BME280;49449;48.800;9.534;2023-09-19T05:09:08;98333.13;;;17.75;43.46
63321;BME280;49449;48.800;9.534;2023-09-19T05:11:37;98343.03;;;17.74;43.65
63321;BME280;49449;48.800;9.534;2023-09-19T05:14:05;98343.03;;;17.74;43.66
63321;BME280;49449;48.800;9.534;2023-09-19T05:16:33;98347.53;;;17.79;43.43
63321;BME280;49449;48.800;9.534;2023-09-19T05:19:02;98343.50;;;17.82;43.58
63321;BME280;49449;48.800;9.534;2023-09-19T05:21:30;98351.78;;;17.80;43.62
63321;BME280;49449;48.800;9.534;2023-09-19T05:23:57;98351.53;;;17.82;43.48
63321;BME280;49449;48.800;9.534;2023-09-19T05:26:25;98358.41;;;17.88;43.34
63321;BME280;49449;48.800;9.534;2023-09-19T05:28:55;98363.47;;;17.89;43.66
63321;BME280;49449;48.800;9.534;2023-09-19T05:31:23;98369.59;;;17.90;44.12
63321;BME280;49449;48.800;9.534;2023-09-19T05:33:51;98368.53;;;17.91;44.08
63321;BME280;49449;48.800;9.534;2023-09-19T05:36:21;98372.81;;;17.92;43.95
63321;BME280;49449;48.800;9.534;2023-09-19T05:38:49;98374.16;;;17.89;44.69
63321;BME280;49449;48.800;9.534;2023-09-19T05:41:19;98377.41;;;17.81;44.86
63321;BME280;49449;48.800;9.534;2023-09-19T05:43:48;98380.00;;;17.62;45.48
63321;BME280;49449;48.800;9.534;2023-09-19T05:46:18;98378.13;;;17.57;45.69
63321;BME280;49449;48.800;9.534;2023-09-19T05:48:46;98380.66;;;17.33;46.69
63321;BME280;49449;48.800;9.534;2023-09-19T05:51:14;98384.13;;;17.39;46.25
63321;BME280;49449;48.800;9.534;2023-09-19T05:53:43;98380.06;;;17.41;46.37
63321;BME280;49449;48.800;9.534;2023-09-19T05:56:14;98385.63;;;17.50;46.08
63321;BME280;49449;48.800;9.534;2023-09-19T05:58:43;98389.63;;;17.53;46.06
63321;BME280;49449;48.800;9.534;2023-09-19T06:01:11;98395.56;;;17.45;46.17
63321;BME280;49449;48.800;9.534;2023-09-19T06:03:41;98398.47;;;17.48;46.49
63321;BME280;49449;48.800;9.534;2023-09-19T06:06:09;98400.28;;;17.53;46.26
63321;BME280;49449;48.800;9.534;2023-09-19T06:08:37;98408.88;;;17.55;46.02
63321;BME280;49449;48.800;9.534;2023-09-19T06:11:05;98406.72;;;17.57;46.32
63321;BME280;49449;48.800;9.534;2023-09-19T06:13:33;98423.81;;;17.56;46.07
63321;BME280;49449;48.800;9.534;2023-09-19T06:16:01;98438.25;;;17.55;46.44
63321;BME280;49449;48.800;9.534;2023-09-19T06:18:31;98444.13;;;17.57;46.46
63321;BME280;49449;48.800;9.534;2023-09-19T06:21:01;98458.53;;;17.51;46.67
63321;BME280;49449;48.800;9.534;2023-09-19T06:23:31;98455.97;;;17.30;46.30
63321;BME280;49449;48.800;9.534;2023-09-19T06:26:00;98458.66;;;17.25;45.71
63321;BME280;49449;48.800;9.534;2023-09-19T06:28:28;98456.81;;;17.15;45.85
63321;BME280;49449;48.800;9.534;2023-09-19T06:30:56;98462.47;;;17.03;45.81
63321;BME280;49449;48.800;9.534;2023-09-19T06:33:24;98469.69;;;16.93;46.01
63321;BME280;49449;48.800;9.534;2023-09-19T06:35:52;98473.22;;;16.83;45.96
63321;BME280;49449;48.800;9.534;2023-09-19T06:38:27;98490.03;;;16.58;46.65
63321;BME280;49449;48.800;9.534;2023-09-19T06:40:54;98499.63;;;16.64;46.33
63321;BME280;49449;48.800;9.534;2023-09-19T06:43:23;98487.34;;;16.63;46.62
63321;BME280;49449;48.800;9.534;2023-09-19T06:45:51;98488.16;;;16.69;46.25
63321;BME280;49449;48.800;9.534;2023-09-19T06:48:21;98487.88;;;16.60;46.23
63321;BME280;49449;48.800;9.534;2023-09-19T06:50:52;98487.63;;;16.56;45.91
63321;BME280;49449;48.800;9.534;2023-09-19T06:53:21;98488.16;;;16.43;46.46
63321;BME280;49449;48.800;9.534;2023-09-19T06:55:51;98482.56;;;16.39;46.21
63321;BME280;49449;48.800;9.534;2023-09-19T06:58:20;98487.09;;;16.39;46.55
63321;BME280;49449;48.800;9.534;2023-09-19T07:00:48;98491.34;;;16.40;46.40
63321;BME280;49449;48.800;9.534;2023-09-19T07:03:16;98495.38;;;16.37;46.41
63321;BME280;49449;48.800;9.534;2023-09-19T07:05:47;98501.47;;;16.33;46.54
63321;BME280;49449;48.800;9.534;2023-09-19T07:08:15;98500.97;;;16.46;46.53
63321;BME280;49449;48.800;9.534;2023-09-19T07:10:43;98503.09;;;16.54;46.15
63321;BME280;49449;48.800;9.534;2023-09-19T07:13:16;98503.06;;;16.59;46.13
63321;BME280;49449;48.800;9.534;2023-09-19T07:15:44;98499.63;;;16.59;46.36
63321;BME280;49449;48.800;9.534;2023-09-19T07:18:14;98492.41;;;16.59;46.52
63321;BME280;49449;48.800;9.534;2023-09-19T07:20:43;98503.63;;;16.66;46.39
63321;BME280;49449;48.800;9.534;2023-09-19T07:23:16;98499.88;;;16.83;46.51
63321;BME280;49449;48.800;9.534;2023-09-19T07:25:45;98496.91;;;17.00;46.25
63321;BME280;49449;48.800;9.534;2023-09-19T07:28:13;98500.31;;;17.16;46.29
63321;BME280;49449;48.800;9.534;2023-09-19T07:30:42;98507.50;;;17.31;46.08
63321;BME280;49449;48.800;9.534;2023-09-19T07:33:10;98512.75;;;17.51;46.48
63321;BME280;49449;48.800;9.534;2023-09-19T07:35:38;98515.84;;;17.79;45.70
63321;BME280;49449;48.800;9.534;2023-09-19T07:38:07;98509.94;;;17.87;45.65
63321;BME280;49449;48.800;9.534;2023-09-19T07:40:36;98509.84;;;18.03;45.25
63321;BME280;49449;48.800;9.534;2023-09-19T07:43:04;98513.47;;;18.17;45.14
63321;BME280;49449;48.800;9.534;2023-09-19T07:45:33;98510.72;;;18.32;44.87
63321;BME280;49449;48.800;9.534;2023-09-19T07:48:04;98516.56;;;18.40;44.82
63321;BME280;49449;48.800;9.534;2023-09-19T07:50:40;98521.59;;;18.41;43.98
63321;BME280;49449;48.800;9.534;2023-09-19T07:53:09;98519.13;;;18.50;44.21
63321;BME280;49449;48.800;9.534;2023-09-19T07:55:39;98518.81;;;18.57;43.89
63321;BME280;49449;48.800;9.534;2023-09-19T07:58:07;98528.41;;;18.63;44.05
63321;BME280;49449;48.800;9.534;2023-09-19T08:00:35;98525.63;;;18.73;43.34
63321;BME280;49449;48.800;9.534;2023-09-19T08:03:04;98528.97;;;18.89;43.38
63321;BME280;49449;48.800;9.534;2023-09-19T08:05:38;98528.09;;;18.99;43.46
63321;BME280;49449;48.800;9.534;2023-09-19T08:08:07;98525.53;;;19.13;43.53
63321;BME280;49449;48.800;9.534;2023-09-19T08:10:35;98536.81;;;19.34;43.33
63321;BME280;49449;48.800;9.534;2023-09-19T08:13:06;98537.88;;;19.57;43.14
63321;BME280;49449;48.800;9.534;2023-09-19T08:15:42;98538.78;;;19.71;42.75
63321;BME280;49449;48.800;9.534;2023-09-19T08:18:13;98542.56;;;19.89;43.03
63321;BME280;49449;48.800;9.534;2023-09-19T08:20:40;98544.81;;;20.01;41.56
63321;BME280;49449;48.800;9.534;2023-09-19T08:23:08;98538.81;;;20.09;41.09
63321;BME280;49449;48.800;9.534;2023-09-19T08:25:36;98549.69;;;20.18;41.42
63321;BME280;49449;48.800;9.534;2023-09-19T08:28:05;98550.19;;;20.39;41.45
63321;BME280;49449;48.800;9.534;2023-09-19T08:30:35;98544.16;;;20.47;41.36
63321;BME280;49449;48.800;9.534;2023-09-19T08:33:06;98544.88;;;20.53;40.45
63321;BME280;49449;48.800;9.534;2023-09-19T08:35:36;98550.00;;;20.68;40.29
63321;BME280;49449;48.800;9.534;2023-09-19T08:38:04;98541.28;;;20.90;40.44
63321;BME280;49449;48.800;9.534;2023-09-19T08:40:32;98544.13;;;20.99;39.61
63321;BME280;49449;48.800;9.534;2023-09-19T08:43:00;98541.84;;;21.06;39.43
63321;BME280;49449;48.800;9.534;2023-09-19T08:45:30;98544.50;;;21.20;39.30
63321;BME280;49449;48.800;9.534;2023-09-19T08:48:16;98538.63;;;21.04;36.71
63321;BME280;49449;48.800;9.534;2023-09-19T08:50:49;98543.31;;;20.98;38.35
63321;BME280;49449;48.800;9.534;2023-09-19T08:53:26;98547.53;;;21.18;38.50
63321;BME280;49449;48.800;9.534;2023-09-19T08:55:56;98551.31;;;21.45;38.07
63321;BME280;49449;48.800;9.534;2023-09-19T08:58:26;98548.19;;;21.66;37.95
63321;BME280;49449;48.800;9.534;2023-09-19T09:00:58;98555.16;;;21.81;37.66
63321;BME280;49449;48.800;9.534;2023-09-19T09:03:32;98557.28;;;21.56;36.31
63321;BME280;49449;48.800;9.534;2023-09-19T09:06:02;98559.66;;;21.30;37.46
63321;BME280;49449;48.800;9.534;2023-09-19T09:08:31;98563.44;;;21.15;37.50
63321;BME280;49449;48.800;9.534;2023-09-19T09:10:59;98567.97;;;21.01;37.30
63321;BME280;49449;48.800;9.534;2023-09-19T09:13:28;98563.06;;;20.89;38.01
63321;BME280;49449;48.800;9.534;2023-09-19T09:15:57;98566.59;;;20.70;37.97
63321;BME280;49449;48.800;9.534;2023-09-19T09:18:26;98570.47;;;20.64;38.12
63321;BME280;49449;48.800;9.534;2023-09-19T09:20:53;98571.53;;;20.63;37.92
63321;BME280;49449;48.800;9.534;2023-09-19T09:23:23;98567.06;;;20.58;38.10
63321;BME280;49449;48.800;9.534;2023-09-19T09:25:52;98565.25;;;20.54;37.89
63321;BME280;49449;48.800;9.534;2023-09-19T09:28:30;98571.13;;;20.56;37.54
63321;BME280;49449;48.800;9.534;2023-09-19T09:30:59;98571.53;;;20.63;37.55
63321;BME280;49449;48.800;9.534;2023-09-19T09:33:29;98567.66;;;20.36;38.13
63321;BME280;49449;48.800;9.534;2023-09-19T09:35:58;98571.00;;;20.47;37.85
63321;BME280;49449;48.800;9.534;2023-09-19T09:38:29;98571.97;;;20.37;38.62
63321;BME280;49449;48.800;9.534;2023-09-19T09:41:00;98555.78;;;20.23;38.47
63321;BME280;49449;48.800;9.534;2023-09-19T09:43:33;98568.53;;;20.32;37.99
63321;BME280;49449;48.800;9.534;2023-09-19T09:46:10;98560.81;;;20.30;38.81
63321;BME280;49449;48.800;9.534;2023-09-19T09:48:56;98564.00;;;20.32;38.97
63321;BME280;49449;48.800;9.534;2023-09-19T10:02:14;98552.06;;;20.38;37.18
63321;BME280;49449;48.800;9.534;2023-09-19T10:04:47;98550.06;;;20.30;35.78
63321;BME280;49449;48.800;9.534;2023-09-19T10:07:26;98547.88;;;20.13;36.34
63321;BME280;49449;48.800;9.534;2023-09-19T10:10:05;98547.00;;;19.99;36.05
63321;BME280;49449;48.800;9.534;2023-09-19T10:12:45;98547.13;;;19.70;37.04
63321;BME280;49449;48.800;9.534;2023-09-19T10:15:17;98549.81;;;19.89;36.92
63321;BME280;49449;48.800;9.534;2023-09-19T10:17:48;98544.19;;;20.09;36.50
63321;BME280;49449;48.800;9.534;2023-09-19T10:20:17;98536.19;;;19.85;35.30
63321;BME280;49449;48.800;9.534;2023-09-19T10:23:07;98550.75;;;20.17;34.33
63321;BME280;49449;48.800;9.534;2023-09-19T10:25:40;98542.03;;;20.30;35.04
63321;BME280;49449;48.800;9.534;2023-09-19T10:28:11;98537.75;;;20.62;35.08
63321;BME280;49449;48.800;9.534;2023-09-19T10:30:41;98546.56;;;20.95;34.37
63321;BME280;49449;48.800;9.534;2023-09-19T10:33:12;98536.50;;;20.87;34.19
63321;BME280;49449;48.800;9.534;2023-09-19T10:35:42;98536.75;;;21.05;33.59
63321;BME280;49449;48.800;9.534;2023-09-19T10:38:12;98529.13;;;21.26;33.07
63321;BME280;49449;48.800;9.534;2023-09-19T10:40:41;98537.75;;;21.23;31.97
63321;BME280;49449;48.800;9.534;2023-09-19T10:43:13;98537.75;;;21.23;32.51
63321;BME280;49449;48.800;9.534;2023-09-19T10:45:46;98543.13;;;21.23;32.57
63321;BME280;49449;48.800;9.534;2023-09-19T10:48:17;98539.44;;;21.32;32.85
63321;BME280;49449;48.800;9.534;2023-09-19T10:50:49;98549.59;;;21.35;31.96
63321;BME280;49449;48.800;9.534;2023-09-19T10:53:18;98540.94;;;21.25;32.70
63321;BME280;49449;48.800;9.534;2023-09-19T10:55:51;98543.81;;;21.28;31.87
63321;BME280;49449;48.800;9.534;2023-09-19T10:58:25;98547.13;;;21.11;31.86
63321;BME280;49449;48.800;9.534;2023-09-19T11:00:56;98545.81;;;21.23;31.75
63321;BME280;49449;48.800;9.534;2023-09-19T11:03:30;98543.44;;;21.21;31.69
63321;BME280;49449;48.800;9.534;2023-09-19T11:06:06;98534.78;;;21.10;31.67
63321;BME280;49449;48.800;9.534;2023-09-19T11:08:59;98538.03;;;21.07;31.41
63321;BME280;49449;48.800;9.534;2023-09-19T11:11:44;98532.59;;;21.12;30.81
63321;BME280;49449;48.800;9.534;2023-09-19T11:14:43;98533.09;;;21.28;31.68
63321;BME280;49449;48.800;9.534;2023-09-19T11:17:31;98530.59;;;21.32;30.87
63321;BME280;49449;48.800;9.534;2023-09-19T11:20:22;98521.44;;;21.61;31.14
63321;BME280;49449;48.800;9.534;2023-09-19T11:23:22;98517.72;;;21.84;30.48
63321;BME280;49449;48.800;9.534;2023-09-19T11:25:50;98510.88;;;22.01;30.56
63321;BME280;49449;48.800;9.534;2023-09-19T11:28:30;98517.91;;;22.24;30.76
63321;BME280;49449;48.800;9.534;2023-09-19T11:30:58;98509.69;;;22.29;29.99
63321;BME280;49449;48.800;9.534;2023-09-19T11:33:27;98505.97;;;22.39;30.34
63321;BME280;49449;48.800;9.534;2023-09-19T11:36:03;98497.97;;;22.25;29.18
63321;BME280;49449;48.800;9.534;2023-09-19T11:39:04;98500.41;;;22.36;29.60
63321;BME280;49449;48.800;9.534;2023-09-19T11:41:41;98498.25;;;22.46;29.48
63321;BME280;49449;48.800;9.534;2023-09-19T11:44:37;98501.28;;;22.54;29.80
63321;BME280;49449;48.800;9.534;2023-09-19T11:47:08;98500.03;;;22.51;29.16
63321;BME280;49449;48.800;9.534;2023-09-19T11:49:40;98491.31;;;22.54;28.94
63321;BME280;49449;48.800;9.534;2023-09-19T11:52:11;98493.88;;;22.59;29.05
63321;BME280;49449;48.800;9.534;2023-09-19T11:54:54;98485.41;;;22.75;29.28
63321;BME280;49449;48.800;9.534;2023-09-19T11:57:27;98488.31;;;22.78;28.83
63321;BME280;49449;48.800;9.534;2023-09-19T11:59:57;98483.09;;;22.82;28.24
63321;BME280;49449;48.800;9.534;2023-09-19T12:02:34;98473.84;;;22.74;28.33
63321;BME280;49449;48.800;9.534;2023-09-19T12:05:07;98485.41;;;22.75;28.76
63321;BME280;49449;48.800;9.534;2023-09-19T12:07:43;98485.94;;;22.54;27.75
63321;BME280;49449;48.800;9.534;2023-09-19T12:10:13;98483.41;;;22.49;28.29
63321;BME280;49449;48.800;9.534;2023-09-19T12:12:47;98476.53;;;22.43;28.13
63321;BME280;49449;48.800;9.534;2023-09-19T12:15:22;98475.03;;;22.28;28.38
63321;BME280;49449;48.800;9.534;2023-09-19T12:17:54;98479.72;;;22.22;28.37
63321;BME280;49449;48.800;9.534;2023-09-19T12:20:22;98476.63;;;22.29;28.30
63321;BME280;49449;48.800;9.534;2023-09-19T12:22:51;98469.31;;;22.29;28.73
63321;BME280;49449;48.800;9.534;2023-09-19T12:25:19;98468.53;;;22.29;28.49
63321;BME280;49449;48.800;9.534;2023-09-19T12:27:49;98476.50;;;22.34;28.40
63321;BME280;49449;48.800;9.534;2023-09-19T12:30:19;98465.78;;;22.43;29.21
63321;BME280;49449;48.800;9.534;2023-09-19T12:32:52;98466.09;;;22.41;28.44
63321;BME280;49449;48.800;9.534;2023-09-19T12:35:27;98465.84;;;22.29;28.68
63321;BME280;49449;48.800;9.534;2023-09-19T12:37:56;98464.22;;;22.19;28.49
63321;BME280;49449;48.800;9.534;2023-09-19T12:40:25;98463.59;;;22.22;29.04
63321;BME280;49449;48.800;9.534;2023-09-19T12:42:55;98458.66;;;22.16;28.81
63321;BME280;49449;48.800;9.534;2023-09-19T12:45:25;98460.22;;;22.17;29.63
63321;BME280;49449;48.800;9.534;2023-09-19T12:48:18;98458.03;;;22.19;29.35
63321;BME280;49449;48.800;9.534;2023-09-19T12:51:01;98459.53;;;22.11;28.43
63321;BME280;49449;48.800;9.534;2023-09-19T12:53:34;98446.66;;;22.22;29.15
63321;BME280;49449;48.800;9.534;2023-09-19T12:56:06;98453.56;;;22.37;29.23
63321;BME280;49449;48.800;9.534;2023-09-19T12:58:48;98446.16;;;22.42;28.67
63321;BME280;49449;48.800;9.534;2023-09-19T13:01:16;98449.81;;;22.24;27.87
63321;BME280;49449;48.800;9.534;2023-09-19T13:03:44;98441.50;;;22.34;29.70
63321;BME280;49449;48.800;9.534;2023-09-19T13:06:12;98437.81;;;22.53;28.80
63321;BME280;49449;48.800;9.534;2023-09-19T13:08:45;98445.25;;;22.56;28.55
63321;BME280;49449;48.800;9.534;2023-09-19T13:11:20;98446.47;;;22.41;29.48
63321;BME280;49449;48.800;9.534;2023-09-19T13:14:18;98443.63;;;22.46;29.06
63321;BME280;49449;48.800;9.534;2023-09-19T13:16:54;98440.16;;;22.54;29.30
63321;BME280;49449;48.800;9.534;2023-09-19T13:19:36;98442.81;;;22.45;28.89
63321;BME280;49449;48.800;9.534;2023-09-19T13:22:39;98436.47;;;22.41;28.97
63321;BME280;49449;48.800;9.534;2023-09-19T13:25:08;98432.34;;;22.35;29.52
63321;BME280;49449;48.800;9.534;2023-09-19T13:27:41;98434.72;;;22.37;28.27
63321;BME280;49449;48.800;9.534;2023-09-19T13:30:11;98430.44;;;22.36;28.63
63321;BME280;49449;48.800;9.534;2023-09-19T13:32:39;98448.31;;;21.72;27.32